Time;durP1;ratioP1;P1;durP2;ratioP2;P2;SDS_P1;SDS_P2;PMS_P1;PMS_P2;Temp;Humidity;BMP_temperature;BMP_pressure;BME280_temperature;BME280_humidity;BME280_pressure;Samples;Min_cycle;Max_cycle;Signal;HPM_P1;HPM_P2
2023/06/22 00:00:28;;;;;;;10.82;4.28;;;28.60;49.10;;;;;;6257499;28;20051;-70
2023/06/22 00:03:29;;;;;;;15.60;4.82;;;28.50;49.30;;;;;;6240256;28;20037;-71
2023/06/22 00:06:30;;;;;;;9.48;4.32;;;28.50;49.40;;;;;;6240666;28;20033;-71
2023/06/22 00:09:32;;;;;;;16.15;5.10;;;28.50;49.60;;;;;;6240567;28;20063;-71
2023/06/22 00:12:33;;;;;;;24.15;4.95;;;28.40;49.60;;;;;;6256849;28;20529;-70
2023/06/22 00:15:35;;;;;;;20.55;5.95;;;28.30;49.80;;;;;;6240043;28;20025;-71
2023/06/22 00:18:37;;;;;;;14.85;5.25;;;28.30;50.00;;;;;;6242402;28;20120;-71
2023/06/22 00:21:38;;;;;;;24.48;4.93;;;28.20;50.00;;;;;;6239821;28;20625;-72
2023/06/22 00:24:39;;;;;;;22.83;5.25;;;28.10;50.10;;;;;;6254983;28;20174;-70
2023/06/22 00:27:40;;;;;;;16.13;4.93;;;28.10;50.30;;;;;;6239855;28;20033;-71
2023/06/22 00:30:41;;;;;;;15.57;5.22;;;28.00;50.40;;;;;;6271578;28;20060;-71
2023/06/22 00:33:43;;;;;;;13.73;4.68;;;28.00;50.50;;;;;;6279898;28;20021;-71
2023/06/22 00:36:44;;;;;;;17.88;4.93;;;27.90;50.50;;;;;;6261332;28;20170;-71
2023/06/22 00:39:45;;;;;;;18.38;4.75;;;27.80;50.50;;;;;;6241088;28;20366;-70
2023/06/22 00:42:46;;;;;;;13.77;4.60;;;27.80;50.60;;;;;;6239159;28;20048;-69
2023/06/22 00:45:47;;;;;;;17.90;4.88;;;27.80;50.90;;;;;;6239192;28;20112;-70
2023/06/22 00:48:48;;;;;;;12.63;4.40;;;27.70;50.90;;;;;;6256188;28;20026;-71
2023/06/22 00:51:49;;;;;;;13.38;4.35;;;27.60;51.10;;;;;;6238937;28;20055;-72
2023/06/22 00:54:52;;;;;;;18.50;5.05;;;27.50;51.20;;;;;;6239201;28;20128;-70
2023/06/22 00:57:55;;;;;;;12.10;4.22;;;27.50;51.40;;;;;;6255519;28;20029;-71
2023/06/22 01:00:57;;;;;;;12.45;4.20;;;27.40;51.40;;;;;;6255963;28;20091;-72
2023/06/22 01:04:02;;;;;;;16.00;4.97;;;27.40;51.50;;;;;;6253934;28;20025;-71
2023/06/22 01:07:35;;;;;;;14.43;4.97;;;27.40;51.70;;;;;;6240863;28;20033;-71
2023/06/22 01:11:01;;;;;;;21.25;5.07;;;27.30;51.80;;;;;;6206387;28;20044;-71
2023/06/22 01:14:27;;;;;;;11.48;4.30;;;27.30;51.80;;;;;;6238765;28;20064;-71
2023/06/22 01:17:32;;;;;;;14.70;4.80;;;27.20;51.80;;;;;;6223352;28;20036;-71
2023/06/22 01:20:35;;;;;;;12.68;4.90;;;27.20;51.80;;;;;;6238407;28;20880;-70
2023/06/22 01:23:50;;;;;;;9.85;3.95;;;27.20;51.80;;;;;;6239122;28;20074;-71
2023/06/22 01:27:14;;;;;;;13.40;4.50;;;27.20;51.90;;;;;;6254724;28;20038;-70
2023/06/22 01:30:18;;;;;;;15.52;4.38;;;27.20;51.90;;;;;;6239979;28;20451;-71
2023/06/22 01:33:19;;;;;;;17.67;4.85;;;27.20;52.00;;;;;;6239761;28;20026;-71
2023/06/22 01:36:22;;;;;;;12.77;4.15;;;27.20;52.00;;;;;;6260843;28;20040;-70
2023/06/22 01:39:24;;;;;;;20.35;5.03;;;27.20;51.90;;;;;;6268136;28;20031;-70
2023/06/22 01:42:28;;;;;;;13.60;4.43;;;27.20;51.90;;;;;;6284842;28;20560;-71
2023/06/22 01:45:30;;;;;;;12.80;4.55;;;27.20;51.90;;;;;;6268160;28;20118;-70
2023/06/22 01:48:32;;;;;;;16.83;4.47;;;27.20;51.90;;;;;;6284253;28;20036;-70
2023/06/22 01:51:33;;;;;;;12.63;3.92;;;27.20;52.00;;;;;;6269470;28;20039;-71
2023/06/22 01:54:34;;;;;;;13.13;4.10;;;27.20;52.00;;;;;;6267808;28;20420;-70
2023/06/22 01:57:35;;;;;;;15.27;4.45;;;27.20;51.90;;;;;;6267701;28;20032;-71
2023/06/22 02:00:40;;;;;;;16.80;4.38;;;27.10;51.80;;;;;;6267676;28;20320;-71
2023/06/22 02:03:50;;;;;;;10.95;3.90;;;27.10;51.80;;;;;;6268865;28;20028;-71
2023/06/22 02:06:58;;;;;;;15.50;4.50;;;27.10;51.80;;;;;;6279295;28;20029;-71
2023/06/22 02:10:01;;;;;;;15.85;4.60;;;27.10;51.80;;;;;;6243516;28;20033;-70
2023/06/22 02:13:06;;;;;;;12.95;3.78;;;27.10;51.80;;;;;;6241122;28;20112;-72
2023/06/22 02:16:07;;;;;;;17.50;6.00;;;27.10;51.80;;;;;;6241614;28;20135;-71
2023/06/22 02:19:08;;;;;;;15.02;4.43;;;27.10;51.80;;;;;;6258290;28;20037;-70
2023/06/22 02:22:09;;;;;;;16.45;4.72;;;27.00;51.90;;;;;;6241548;28;20079;-71
2023/06/22 02:25:11;;;;;;;16.48;4.20;;;26.90;52.00;;;;;;6258180;28;20103;-70
2023/06/22 02:28:12;;;;;;;18.45;4.40;;;26.90;52.10;;;;;;6241801;28;20072;-72
2023/06/22 02:31:13;;;;;;;17.63;4.95;;;26.80;52.20;;;;;;6242255;28;20112;-71
2023/06/22 02:34:18;;;;;;;19.55;4.28;;;26.80;52.20;;;;;;6258026;28;20386;-69
2023/06/22 02:37:18;;;;;;;10.20;4.18;;;26.80;52.30;;;;;;6258347;28;20040;-71
2023/06/22 02:40:19;;;;;;;17.33;4.45;;;26.80;52.30;;;;;;6242299;28;20093;-71
2023/06/22 02:43:20;;;;;;;10.48;4.15;;;26.70;52.20;;;;;;6258927;28;20034;-69
2023/06/22 02:46:22;;;;;;;17.25;4.70;;;26.70;52.30;;;;;;6241227;28;20358;-71
2023/06/22 02:49:24;;;;;;;13.70;4.95;;;26.60;52.30;;;;;;6257703;28;20029;-70
2023/06/22 02:52:24;;;;;;;13.93;5.03;;;26.60;52.30;;;;;;6258032;28;20033;-71
2023/06/22 02:55:26;;;;;;;35.00;5.35;;;26.60;52.50;;;;;;6242165;28;20519;-71
2023/06/22 02:58:30;;;;;;;18.70;4.75;;;26.60;52.50;;;;;;6258064;28;20030;-70
2023/06/22 03:01:39;;;;;;;21.45;5.30;;;26.60;52.50;;;;;;6241250;28;20108;-71
2023/06/22 03:04:42;;;;;;;13.32;4.30;;;26.70;52.50;;;;;;6240860;28;20037;-68
2023/06/22 03:07:44;;;;;;;10.45;4.30;;;26.70;52.50;;;;;;6258387;28;20057;-72
2023/06/22 03:10:45;;;;;;;15.25;5.50;;;26.70;52.60;;;;;;6258320;28;20034;-69
2023/06/22 03:13:46;;;;;;;16.55;4.55;;;26.70;52.50;;;;;;6224997;28;20391;-71
2023/06/22 03:16:47;;;;;;;17.05;4.97;;;26.80;52.60;;;;;;6243324;28;20520;-69
2023/06/22 03:19:48;;;;;;;17.88;4.78;;;26.70;52.50;;;;;;6257829;28;20315;-69
2023/06/22 03:22:49;;;;;;;13.25;4.50;;;26.70;52.40;;;;;;6257569;28;20033;-69
2023/06/22 03:25:50;;;;;;;13.48;4.80;;;26.70;52.30;;;;;;6242772;28;20030;-69
2023/06/22 03:28:51;;;;;;;10.90;4.43;;;26.70;52.30;;;;;;6240522;28;20037;-69
2023/06/22 03:31:52;;;;;;;18.98;4.47;;;26.70;52.30;;;;;;6257328;28;20026;-69
2023/06/22 03:34:52;;;;;;;15.18;4.57;;;26.60;52.20;;;;;;6241167;28;20045;-71
2023/06/22 03:37:54;;;;;;;9.80;4.18;;;26.60;52.20;;;;;;6259174;28;20029;-69
2023/06/22 03:40:54;;;;;;;14.77;4.78;;;26.60;52.10;;;;;;6241047;28;20447;-69
2023/06/22 03:43:55;;;;;;;16.13;4.63;;;26.60;52.10;;;;;;6257293;28;20076;-69
2023/06/22 03:46:56;;;;;;;15.98;5.35;;;26.60;52.10;;;;;;6224510;28;20037;-70
2023/06/22 03:49:57;;;;;;;19.02;4.57;;;26.60;52.10;;;;;;6241011;28;20026;-70
2023/06/22 03:52:58;;;;;;;19.85;4.95;;;26.60;52.20;;;;;;6239867;28;20498;-69
2023/06/22 03:55:59;;;;;;;14.02;4.45;;;26.60;52.20;;;;;;6241056;28;20040;-69
2023/06/22 03:59:00;;;;;;;19.50;4.43;;;26.60;52.20;;;;;;6240348;28;20025;-69
2023/06/22 04:02:01;;;;;;;12.32;4.45;;;26.60;52.20;;;;;;6241709;28;20056;-70
2023/06/22 04:05:02;;;;;;;13.15;4.15;;;26.60;52.30;;;;;;6240356;28;20040;-69
2023/06/22 04:08:03;;;;;;;15.23;5.47;;;26.60;52.30;;;;;;6223919;28;20045;-69
2023/06/22 04:11:04;;;;;;;16.17;4.75;;;26.60;52.40;;;;;;6242263;28;20025;-69
2023/06/22 04:14:05;;;;;;;12.90;3.97;;;26.60;52.40;;;;;;6243816;28;20116;-69
2023/06/22 04:17:06;;;;;;;13.55;4.30;;;26.60;52.50;;;;;;6243019;28;20405;-69
2023/06/22 04:20:08;;;;;;;15.73;4.38;;;26.60;52.60;;;;;;6242090;28;20036;-69
2023/06/22 04:23:09;;;;;;;16.23;4.13;;;26.50;52.60;;;;;;6241550;28;20029;-70
2023/06/22 04:26:10;;;;;;;14.68;4.75;;;26.50;52.60;;;;;;6256949;28;20402;-69
2023/06/22 04:29:11;;;;;;;12.02;4.97;;;26.50;52.60;;;;;;6240297;28;20120;-69
2023/06/22 04:32:12;;;;;;;15.05;4.55;;;26.50;52.70;;;;;;6255806;28;20026;-69
2023/06/22 04:35:15;;;;;;;16.85;4.97;;;26.50;52.80;;;;;;6240127;28;20520;-68
2023/06/22 04:38:17;;;;;;;13.07;4.90;;;26.60;53.00;;;;;;6243013;28;20545;-70
2023/06/22 04:41:23;;;;;;;13.07;4.15;;;26.60;53.00;;;;;;6239740;28;20037;-69
2023/06/22 04:44:24;;;;;;;20.75;4.97;;;26.60;52.90;;;;;;6240957;28;20044;-70
2023/06/22 04:47:25;;;;;;;14.48;4.70;;;26.70;53.10;;;;;;6239917;28;20409;-70
2023/06/22 04:50:25;;;;;;;13.80;4.55;;;26.60;53.30;;;;;;6239992;28;20040;-70
2023/06/22 04:53:29;;;;;;;11.23;4.18;;;26.60;53.40;;;;;;6240939;28;20065;-69
2023/06/22 04:56:30;;;;;;;22.23;5.82;;;26.60;53.60;;;;;;6241204;28;20034;-70
2023/06/22 04:59:31;;;;;;;20.38;5.35;;;26.60;53.70;;;;;;6243977;28;20168;-70
2023/06/22 05:02:32;;;;;;;16.35;4.35;;;26.50;53.60;;;;;;6247128;28;20134;-69
2023/06/22 05:05:33;;;;;;;15.00;5.10;;;26.60;53.60;;;;;;6275919;28;20387;-69
2023/06/22 05:08:35;;;;;;;20.00;5.43;;;26.60;53.70;;;;;;6250797;28;20033;-70
2023/06/22 05:11:36;;;;;;;13.82;4.57;;;26.60;53.80;;;;;;6253150;28;20095;-69
2023/06/22 05:14:36;;;;;;;11.57;5.10;;;26.50;54.00;;;;;;6255720;28;20037;-71
2023/06/22 05:17:42;;;;;;;9.65;4.15;;;26.40;54.40;;;;;;6254532;28;20310;-69
2023/06/22 05:20:43;;;;;;;18.00;5.18;;;26.40;54.50;;;;;;6279235;28;20206;-69
2023/06/22 05:23:44;;;;;;;17.80;5.50;;;26.40;54.60;;;;;;6248765;28;20108;-71
2023/06/22 05:26:45;;;;;;;15.23;4.95;;;26.40;54.70;;;;;;6257732;28;20021;-71
2023/06/22 05:29:46;;;;;;;15.85;4.95;;;26.40;54.60;;;;;;6245938;28;20116;-71
2023/06/22 05:32:47;;;;;;;13.55;4.53;;;26.40;54.50;;;;;;6254626;28;20120;-70
2023/06/22 05:35:48;;;;;;;22.40;4.97;;;26.40;54.50;;;;;;6248444;28;20169;-71
2023/06/22 05:38:49;;;;;;;22.92;5.20;;;26.40;54.40;;;;;;6252825;28;20075;-71
2023/06/22 05:41:49;;;;;;;12.38;4.90;;;26.40;54.20;;;;;;6269467;28;20052;-72
2023/06/22 05:44:51;;;;;;;17.33;5.45;;;26.50;54.20;;;;;;6261348;28;20056;-71
2023/06/22 05:47:52;;;;;;;12.02;4.88;;;26.50;54.10;;;;;;6232785;28;20071;-72
2023/06/22 05:50:54;;;;;;;15.30;4.68;;;26.60;54.10;;;;;;6244399;28;20430;-71
2023/06/22 05:53:54;;;;;;;13.82;4.43;;;26.50;54.10;;;;;;6253050;28;20025;-72
2023/06/22 05:56:56;;;;;;;16.83;4.97;;;26.60;54.20;;;;;;6248914;28;20041;-71
2023/06/22 05:59:57;;;;;;;21.65;5.28;;;26.60;54.20;;;;;;6244533;28;20033;-70
2023/06/22 06:03:03;;;;;;;17.73;4.78;;;26.50;54.00;;;;;;6243070;28;20041;-70
2023/06/22 06:06:04;;;;;;;14.02;4.93;;;26.50;53.90;;;;;;6245500;28;20116;-70
2023/06/22 06:09:05;;;;;;;21.15;4.93;;;26.60;53.80;;;;;;6244817;28;20119;-70
2023/06/22 06:12:06;;;;;;;12.63;4.85;;;26.60;53.80;;;;;;6244790;28;20042;-70
2023/06/22 06:15:07;;;;;;;24.48;5.60;;;26.70;54.10;;;;;;6243587;28;20395;-70
2023/06/22 06:18:08;;;;;;;11.85;4.72;;;26.70;54.20;;;;;;6244644;28;20029;-70
2023/06/22 06:21:09;;;;;;;18.38;5.50;;;26.70;54.20;;;;;;6243121;28;20037;-70
2023/06/22 06:24:10;;;;;;;12.38;4.75;;;26.70;54.10;;;;;;6246540;28;20026;-70
2023/06/22 06:27:11;;;;;;;18.55;5.20;;;26.80;54.00;;;;;;6242980;28;20043;-71
2023/06/22 06:30:13;;;;;;;12.20;4.88;;;26.80;53.90;;;;;;6243088;28;20030;-71
2023/06/22 06:33:14;;;;;;;40.58;5.30;;;26.90;53.90;;;;;;6243669;28;20025;-71
2023/06/22 06:36:16;;;;;;;12.05;4.25;;;26.90;53.70;;;;;;6259591;28;20076;-70
2023/06/22 06:39:17;;;;;;;17.80;4.63;;;27.00;53.60;;;;;;6245169;28;20485;-71
2023/06/22 06:42:19;;;;;;;13.73;4.78;;;27.00;53.40;;;;;;6243661;28;20073;-69
2023/06/22 06:45:25;;;;;;;19.30;5.13;;;27.10;53.30;;;;;;6243893;28;20037;-70
2023/06/22 06:48:25;;;;;;;19.48;4.90;;;27.30;53.10;;;;;;6243729;28;20053;-71
2023/06/22 06:51:26;;;;;;;14.32;3.88;;;27.40;52.80;;;;;;6241564;28;20088;-71
2023/06/22 06:54:27;;;;;;;19.48;4.88;;;27.70;52.70;;;;;;6242087;28;20203;-71
2023/06/22 06:57:28;;;;;;;25.20;5.05;;;27.50;52.30;;;;;;6243656;28;20045;-70
2023/06/22 07:00:29;;;;;;;19.10;4.88;;;27.50;52.30;;;;;;6241699;28;20049;-71
2023/06/22 07:03:32;;;;;;;17.08;5.75;;;27.50;52.40;;;;;;6225547;28;20045;-69
2023/06/22 07:06:33;;;;;;;10.93;4.28;;;27.50;52.50;;;;;;6247255;28;20059;-70
2023/06/22 07:09:34;;;;;;;21.23;5.47;;;27.50;52.40;;;;;;6243140;28;20037;-70
2023/06/22 07:12:35;;;;;;;13.48;4.43;;;27.50;52.30;;;;;;6257293;28;20026;-70
2023/06/22 07:15:36;;;;;;;20.10;4.93;;;27.50;52.30;;;;;;6249350;28;20478;-71
2023/06/22 07:18:39;;;;;;;16.48;4.63;;;27.40;52.20;;;;;;6243014;28;20529;-71
2023/06/22 07:21:40;;;;;;;22.42;4.32;;;27.40;52.00;;;;;;6241692;28;20041;-71
2023/06/22 07:24:41;;;;;;;21.77;5.07;;;27.50;51.60;;;;;;6258135;28;20087;-71
2023/06/22 07:27:56;;;;;;;12.05;4.07;;;27.60;51.30;;;;;;6257645;28;20091;-71
2023/06/22 07:30:57;;;;;;;16.05;3.78;;;27.70;51.10;;;;;;6257808;28;20098;-71
2023/06/22 07:33:58;;;;;;;15.82;3.60;;;27.70;50.30;;;;;;6256976;28;20464;-71
2023/06/22 07:36:59;;;;;;;9.55;3.80;;;27.80;49.70;;;;;;6242356;28;20399;-70
2023/06/22 07:40:00;;;;;;;14.93;3.63;;;27.90;49.20;;;;;;6242394;28;20120;-73
2023/06/22 07:43:03;;;;;;;16.33;3.30;;;28.00;48.70;;;;;;6240641;28;20379;-70
2023/06/22 07:46:04;;;;;;;12.68;3.10;;;28.10;47.70;;;;;;6240929;28;20052;-72
2023/06/22 07:49:05;;;;;;;15.50;3.22;;;28.20;46.60;;;;;;6243092;28;20065;-70
2023/06/22 07:52:06;;;;;;;14.73;2.45;;;28.30;46.30;;;;;;6242532;28;20112;-71
2023/06/22 07:55:07;;;;;;;24.55;3.25;;;28.40;46.30;;;;;;6242524;28;20037;-73
2023/06/22 07:58:08;;;;;;;15.82;3.05;;;28.40;45.90;;;;;;6242606;28;20043;-71
2023/06/22 08:01:09;;;;;;;13.07;2.50;;;28.40;45.30;;;;;;6244004;28;20038;-71
2023/06/22 08:04:10;;;;;;;9.45;2.33;;;28.50;44.90;;;;;;6242427;28;20087;-71
2023/06/22 08:07:20;;;;;;;12.20;2.65;;;28.50;44.80;;;;;;6241954;28;20072;-72
2023/06/22 08:10:21;;;;;;;15.20;2.65;;;28.60;44.70;;;;;;6240824;28;20037;-71
2023/06/22 08:13:22;;;;;;;12.43;2.63;;;28.70;45.00;;;;;;6240877;28;20052;-73
2023/06/22 08:16:23;;;;;;;22.40;3.08;;;28.80;45.00;;;;;;6242917;28;20045;-72
2023/06/22 08:19:23;;;;;;;17.33;2.97;;;28.80;45.00;;;;;;6257509;28;20033;-71
2023/06/22 08:22:25;;;;;;;12.40;2.95;;;28.80;44.50;;;;;;6240556;28;20104;-72
2023/06/22 08:25:25;;;;;;;15.10;2.92;;;28.90;44.30;;;;;;6242426;28;20067;-71
2023/06/22 08:28:27;;;;;;;10.15;3.13;;;28.90;44.50;;;;;;6244346;28;20080;-70
2023/06/22 08:31:27;;;;;;;16.90;2.95;;;28.90;45.00;;;;;;6244690;28;20029;-70
2023/06/22 08:34:28;;;;;;;15.73;3.25;;;29.00;44.30;;;;;;6242457;28;20029;-71
2023/06/22 08:37:35;;;;;;;15.68;2.55;;;29.00;44.40;;;;;;6234425;28;20036;-72
2023/06/22 08:40:35;;;;;;;25.33;2.45;;;29.00;44.30;;;;;;6262101;28;20060;-72
2023/06/22 08:43:36;;;;;;;8.25;2.55;;;29.10;44.20;;;;;;6256599;28;20041;-70
2023/06/22 08:46:38;;;;;;;11.48;2.20;;;29.10;43.90;;;;;;6241428;28;20045;-72
2023/06/22 08:49:39;;;;;;;19.95;3.38;;;29.20;43.60;;;;;;6242007;28;20069;-72
2023/06/22 08:52:43;;;;;;;12.15;2.47;;;29.20;43.60;;;;;;6225580;28;20036;-70
2023/06/22 08:55:45;;;;;;;16.80;2.47;;;29.30;43.10;;;;;;6243810;28;20047;-72
2023/06/22 08:58:45;;;;;;;27.20;3.28;;;29.30;43.00;;;;;;6244156;28;20109;-70
2023/06/22 09:01:48;;;;;;;12.07;2.72;;;29.20;43.20;;;;;;6242548;28;20045;-72
2023/06/22 09:04:55;;;;;;;13.13;2.63;;;29.10;43.40;;;;;;6256996;28;20041;-72
2023/06/22 09:07:58;;;;;;;9.75;2.28;;;29.00;43.30;;;;;;6240682;28;20029;-73
2023/06/22 09:10:59;;;;;;;19.38;2.88;;;29.00;43.10;;;;;;6240391;28;20048;-72
2023/06/22 09:14:00;;;;;;;12.90;2.40;;;29.00;43.20;;;;;;6242454;28;20029;-73
2023/06/22 09:17:02;;;;;;;11.50;2.35;;;29.00;43.30;;;;;;6258345;28;20033;-71
2023/06/22 09:20:05;;;;;;;18.83;2.30;;;29.00;44.30;;;;;;6240411;28;20037;-72
2023/06/22 09:23:06;;;;;;;12.38;2.55;;;29.10;43.80;;;;;;6242035;28;20741;-73
2023/06/22 09:26:08;;;;;;;18.17;2.75;;;29.10;44.00;;;;;;6242974;28;20104;-74
2023/06/22 09:29:09;;;;;;;20.13;2.85;;;29.10;44.00;;;;;;6256950;28;20111;-72
2023/06/22 09:32:10;;;;;;;14.90;2.35;;;29.20;44.00;;;;;;6241257;28;20029;-72
2023/06/22 09:35:13;;;;;;;11.13;2.65;;;29.20;43.70;;;;;;6248736;28;20041;-72
2023/06/22 09:38:14;;;;;;;16.05;3.90;;;29.20;43.30;;;;;;6249605;28;20086;-71
2023/06/22 09:41:15;;;;;;;15.98;3.25;;;29.30;43.30;;;;;;6249744;28;20461;-72
2023/06/22 09:44:16;;;;;;;15.80;2.58;;;29.30;43.10;;;;;;6249904;28;20041;-72
2023/06/22 09:47:17;;;;;;;20.55;2.88;;;29.50;43.20;;;;;;6249112;28;20485;-71
2023/06/22 09:50:19;;;;;;;9.80;3.58;;;29.70;43.00;;;;;;6264983;28;20097;-71
2023/06/22 09:53:19;;;;;;;8.20;2.65;;;30.00;42.70;;;;;;6266054;28;20037;-71
2023/06/22 09:56:20;;;;;;;11.63;2.65;;;30.30;42.40;;;;;;6274532;28;20401;-73
2023/06/22 09:59:21;;;;;;;12.30;2.63;;;30.70;42.00;;;;;;6271803;28;20114;-71
2023/06/22 10:02:22;;;;;;;13.32;2.83;;;30.90;41.40;;;;;;6271078;28;20418;-71
2023/06/22 10:05:23;;;;;;;16.00;3.22;;;30.90;40.70;;;;;;6270229;28;20086;-73
2023/06/22 10:08:24;;;;;;;16.40;3.25;;;30.90;40.60;;;;;;6268220;28;20528;-71
2023/06/22 10:11:29;;;;;;;15.75;4.03;;;30.80;40.40;;;;;;6269284;28;20143;-71
2023/06/22 10:14:29;;;;;;;26.67;6.05;;;30.80;40.50;;;;;;6268737;28;20046;-73
2023/06/22 10:17:30;;;;;;;16.30;2.40;;;30.80;40.50;;;;;;6269136;28;20052;-72
2023/06/22 10:20:31;;;;;;;15.07;2.67;;;30.80;40.60;;;;;;6267256;28;20499;-73
2023/06/22 10:23:32;;;;;;;20.08;6.05;;;30.70;40.70;;;;;;6268187;28;20369;-71
2023/06/22 10:26:34;;;;;;;11.50;3.55;;;30.70;40.90;;;;;;6265749;28;20100;-71
2023/06/22 10:29:34;;;;;;;16.23;3.10;;;30.60;41.10;;;;;;6242983;28;20493;-72
2023/06/22 10:32:37;;;;;;;17.75;3.35;;;30.60;41.20;;;;;;6242443;28;20030;-72
2023/06/22 10:35:38;;;;;;;18.40;4.20;;;30.60;41.30;;;;;;6244530;28;20104;-72
2023/06/22 10:38:39;;;;;;;19.42;3.70;;;30.60;41.20;;;;;;6261162;28;20025;-73
2023/06/22 10:41:40;;;;;;;14.95;3.10;;;30.70;41.50;;;;;;6243452;28;20029;-72
2023/06/22 10:44:43;;;;;;;11.27;2.95;;;30.60;42.00;;;;;;6243530;28;20471;-73
2023/06/22 10:47:44;;;;;;;14.10;3.08;;;30.60;42.60;;;;;;6224367;28;20087;-72
2023/06/22 10:50:44;;;;;;;26.98;2.92;;;30.50;42.80;;;;;;6233846;28;20141;-71
2023/06/22 10:53:45;;;;;;;11.90;2.90;;;30.50;42.70;;;;;;6218523;28;20034;-73
2023/06/22 10:56:46;;;;;;;16.55;3.00;;;30.50;42.60;;;;;;6219846;28;20377;-71
2023/06/22 10:59:47;;;;;;;8.68;2.78;;;30.50;42.40;;;;;;6233758;28;20497;-72
2023/06/22 11:02:48;;;;;;;14.50;3.28;;;30.70;42.10;;;;;;6218687;28;20045;-71
2023/06/22 11:05:49;;;;;;;14.05;2.80;;;31.00;41.40;;;;;;6233496;28;20560;-72
2023/06/22 11:08:50;;;;;;;13.45;2.75;;;31.40;40.50;;;;;;6233161;28;20032;-72
2023/06/22 11:11:54;;;;;;;12.07;2.53;;;32.20;39.50;;;;;;6233026;28;20060;-73
2023/06/22 11:14:57;;;;;;;11.88;2.53;;;32.70;38.00;;;;;;6233442;28;20421;-72
2023/06/22 11:17:58;;;;;;;11.27;2.83;;;32.80;37.10;;;;;;6216839;28;20084;-72
2023/06/22 11:20:59;;;;;;;12.20;2.15;;;32.70;36.70;;;;;;6218374;28;20037;-72
2023/06/22 11:24:00;;;;;;;7.45;2.78;;;32.60;37.10;;;;;;6217374;28;20042;-72
2023/06/22 11:27:01;;;;;;;10.48;3.10;;;32.60;36.90;;;;;;6223980;28;20033;-72
2023/06/22 11:30:03;;;;;;;15.90;3.22;;;32.60;37.00;;;;;;6242188;28;20033;-72
2023/06/22 11:33:03;;;;;;;17.60;2.88;;;32.60;37.20;;;;;;6241850;28;20037;-70
2023/06/22 11:36:05;;;;;;;10.02;2.80;;;32.70;37.30;;;;;;6224619;28;20136;-73
2023/06/22 11:39:06;;;;;;;13.98;2.90;;;32.60;37.30;;;;;;6258547;28;20025;-74
2023/06/22 11:42:08;;;;;;;15.90;2.85;;;32.60;37.40;;;;;;6240172;28;20083;-72
2023/06/22 11:45:09;;;;;;;11.20;2.90;;;32.40;37.70;;;;;;6241861;28;20037;-72
2023/06/22 11:48:10;;;;;;;15.02;2.92;;;32.40;37.90;;;;;;6256783;28;20145;-72
2023/06/22 11:51:11;;;;;;;12.93;3.25;;;32.60;37.90;;;;;;6239549;28;20449;-74
2023/06/22 11:54:11;;;;;;;16.80;2.67;;;32.70;37.20;;;;;;6256416;28;20043;-75
2023/06/22 11:57:12;;;;;;;9.27;3.03;;;32.60;36.80;;;;;;6240994;28;20113;-71
2023/06/22 12:00:17;;;;;;;16.30;2.78;;;32.60;36.80;;;;;;6242051;28;20037;-71
2023/06/22 12:03:21;;;;;;;12.25;2.83;;;32.60;36.30;;;;;;6240478;28;20033;-71
2023/06/22 12:06:21;;;;;;;12.25;2.83;;;32.70;35.70;;;;;;6242256;28;20414;-74
2023/06/22 12:09:22;;;;;;;6.28;2.20;;;32.80;35.20;;;;;;6242103;28;20036;-71
2023/06/22 12:12:23;;;;;;;13.55;2.78;;;33.30;34.40;;;;;;6241625;28;20045;-71
2023/06/22 12:15:24;;;;;;;20.70;3.38;;;34.10;33.50;;;;;;6240165;28;20108;-71
2023/06/22 12:18:25;;;;;;;12.00;3.13;;;34.70;32.00;;;;;;6242161;28;20028;-71
2023/06/22 12:21:27;;;;;;;8.85;2.72;;;34.90;31.70;;;;;;6256383;28;20045;-71
2023/06/22 12:24:29;;;;;;;12.10;2.67;;;35.30;31.10;;;;;;6256270;28;20108;-74
2023/06/22 12:27:30;;;;;;;9.73;2.78;;;35.70;30.50;;;;;;6239968;28;20037;-72
2023/06/22 12:30:33;;;;;;;15.52;3.10;;;35.90;30.10;;;;;;6256020;28;20029;-71
2023/06/22 12:33:34;;;;;;;16.08;2.67;;;35.70;30.20;;;;;;6241471;28;20533;-74
2023/06/22 12:36:35;;;;;;;7.38;2.72;;;35.40;30.40;;;;;;6243338;28;20082;-74
2023/06/22 12:39:36;;;;;;;7.72;2.97;;;35.20;30.70;;;;;;6251234;28;20072;-73
2023/06/22 12:42:37;;;;;;;9.52;2.30;;;34.90;30.70;;;;;;6262148;28;20114;-71
2023/06/22 12:45:38;;;;;;;10.95;2.58;;;34.50;30.80;;;;;;6282044;28;20032;-72
2023/06/22 12:48:42;;;;;;;14.43;2.70;;;34.10;31.30;;;;;;6244949;28;20048;-72
2023/06/22 12:51:43;;;;;;;10.52;3.22;;;33.80;31.90;;;;;;6240773;28;20533;-71
2023/06/22 12:54:46;;;;;;;14.18;2.92;;;33.60;32.40;;;;;;6240064;28;20721;-73
2023/06/22 12:57:46;;;;;;;8.88;2.42;;;33.40;32.50;;;;;;6241323;28;20037;-73
2023/06/22 13:00:48;;;;;;;13.40;2.83;;;33.40;32.80;;;;;;6240386;28;20386;-73
2023/06/22 13:03:49;;;;;;;11.90;3.03;;;33.40;32.90;;;;;;6239564;28;20171;-74
2023/06/22 13:06:49;;;;;;;12.02;2.97;;;33.40;33.20;;;;;;6240923;28;20037;-72
2023/06/22 13:09:51;;;;;;;10.13;2.92;;;33.40;33.70;;;;;;6239291;28;20116;-71
2023/06/22 13:13:00;;;;;;;26.77;3.28;;;33.30;34.10;;;;;;6241159;28;20030;-72
2023/06/22 13:16:01;;;;;;;15.00;2.95;;;33.20;34.60;;;;;;6241825;28;20036;-72
2023/06/22 13:19:02;;;;;;;12.73;2.80;;;33.00;35.00;;;;;;6240803;28;20025;-72
2023/06/22 13:22:03;;;;;;;17.83;3.55;;;33.00;35.30;;;;;;6238773;28;20132;-72
2023/06/22 13:25:05;;;;;;;10.30;2.63;;;33.10;35.20;;;;;;6240645;28;20565;-72
2023/06/22 13:28:06;;;;;;;12.77;3.28;;;33.30;35.00;;;;;;6240249;28;20029;-72
2023/06/22 13:31:07;;;;;;;15.52;3.10;;;33.30;35.10;;;;;;6243422;28;20195;-71
2023/06/22 13:34:08;;;;;;;14.93;3.50;;;33.00;35.50;;;;;;6243653;28;20454;-71
2023/06/22 13:37:09;;;;;;;11.18;3.38;;;32.80;36.00;;;;;;6235529;28;20029;-71
2023/06/22 13:40:10;;;;;;;9.65;2.55;;;32.60;36.70;;;;;;6245041;28;20041;-71
2023/06/22 13:43:11;;;;;;;8.93;3.03;;;32.30;37.40;;;;;;6243060;28;20116;-72
2023/06/22 13:46:12;;;;;;;23.80;3.20;;;32.00;38.10;;;;;;6243193;28;20500;-72
2023/06/22 13:49:13;;;;;;;35.15;3.67;;;31.80;38.50;;;;;;6227201;28;20029;-74
2023/06/22 13:52:13;;;;;;;11.45;2.67;;;31.40;37.30;;;;;;6226896;28;20033;-74
2023/06/22 13:55:15;;;;;;;18.13;2.40;;;31.00;36.90;;;;;;6245891;28;20087;-75
2023/06/22 13:58:16;;;;;;;24.40;2.00;;;30.60;36.40;;;;;;6227628;28;20094;-70
2023/06/22 14:01:16;;;;;;;11.73;1.27;;;30.20;36.10;;;;;;6244421;28;20041;-72
2023/06/22 14:04:17;;;;;;;11.10;1.00;;;29.70;36.00;;;;;;6244852;28;20038;-73
2023/06/22 14:07:20;;;;;;;10.57;1.15;;;28.80;40.00;;;;;;6244885;28;20026;-72
2023/06/22 14:10:21;;;;;;;10.55;1.60;;;27.10;44.90;;;;;;6244683;28;20430;-73
2023/06/22 14:13:22;;;;;;;9.43;1.67;;;25.60;49.10;;;;;;6242492;28;20029;-72
2023/06/22 14:16:23;;;;;;;9.80;1.40;;;24.30;52.60;;;;;;6244480;28;20040;-73
2023/06/22 14:19:25;;;;;;;2.70;1.20;;;23.30;55.30;;;;;;6244712;28;20037;-73
2023/06/22 14:22:29;;;;;;;5.15;1.25;;;22.60;57.10;;;;;;6244185;28;20029;-72
2023/06/22 14:25:29;;;;;;;11.40;1.70;;;22.00;58.40;;;;;;6259783;28;20041;-73
2023/06/22 14:28:30;;;;;;;3.70;1.02;;;21.50;59.70;;;;;;6242973;28;20026;-74
2023/06/22 14:31:32;;;;;;;2.70;0.88;;;21.20;61.00;;;;;;6243997;28;20030;-72
2023/06/22 14:34:35;;;;;;;11.02;1.40;;;20.80;62.40;;;;;;6258414;28;20365;-73
2023/06/22 14:37:36;;;;;;;4.32;1.40;;;20.60;63.00;;;;;;6267551;28;20086;-73
2023/06/22 14:40:37;;;;;;;4.72;1.40;;;20.60;63.30;;;;;;6243844;28;20470;-73
2023/06/22 14:43:38;;;;;;;9.18;1.23;;;20.50;63.40;;;;;;6242744;28;20033;-73
2023/06/22 14:46:39;;;;;;;9.27;1.30;;;20.50;64.20;;;;;;6249406;28;20040;-74
2023/06/22 14:49:41;;;;;;;3.00;0.93;;;20.50;64.70;;;;;;6246094;28;20033;-72
2023/06/22 14:52:42;;;;;;;3.05;1.27;;;20.60;65.20;;;;;;6225498;28;20026;-74
2023/06/22 14:55:43;;;;;;;4.40;1.05;;;20.50;66.10;;;;;;6259620;28;20053;-73
2023/06/22 14:58:47;;;;;;;5.55;1.95;;;20.50;66.30;;;;;;6242335;28;20567;-72
2023/06/22 15:01:48;;;;;;;4.72;1.63;;;20.60;66.70;;;;;;6243918;28;20128;-74
2023/06/22 15:04:49;;;;;;;8.50;1.60;;;20.80;66.80;;;;;;6242067;28;20060;-71
2023/06/22 15:07:50;;;;;;;5.60;1.67;;;20.90;66.70;;;;;;6243870;28;20112;-72
2023/06/22 15:10:57;;;;;;;9.07;3.15;;;21.10;66.70;;;;;;6245472;28;20033;-72
2023/06/22 15:14:00;;;;;;;10.32;1.90;;;21.10;66.60;;;;;;6242248;28;20037;-72
2023/06/22 15:17:01;;;;;;;12.63;1.20;;;21.20;66.40;;;;;;6258389;28;20030;-74
2023/06/22 15:20:05;;;;;;;7.63;1.48;;;21.30;66.40;;;;;;6258661;28;20033;-71
2023/06/22 15:23:12;;;;;;;4.05;2.42;;;21.30;66.20;;;;;;6257795;28;20042;-73
2023/06/22 15:26:13;;;;;;;36.70;15.98;;;21.30;66.50;;;;;;6244825;28;20467;-71
2023/06/22 15:29:14;;;;;;;4.60;1.80;;;21.30;66.60;;;;;;6262042;28;20045;-72
2023/06/22 15:32:15;;;;;;;6.10;1.80;;;21.40;66.30;;;;;;6245320;28;20014;-72
2023/06/22 15:35:19;;;;;;;3.55;1.58;;;21.40;66.10;;;;;;6260099;28;20104;-72